createdAt,value
2022-10-17T00:00:37.460Z,14.13
2022-10-17T00:01:37.583Z,14.13
2022-10-17T00:02:37.507Z,14.13
2022-10-17T00:03:37.494Z,14.13
2022-10-17T00:04:37.463Z,14.21
2022-10-17T00:05:37.465Z,14.21
2022-10-17T00:06:37.531Z,14.3
2022-10-17T00:07:37.449Z,14.3
2022-10-17T00:08:37.458Z,14.3
2022-10-17T00:09:37.459Z,14.3
2022-10-17T00:10:37.514Z,14.3
2022-10-17T00:11:37.457Z,14.3
2022-10-17T00:12:37.452Z,14.3
2022-10-17T00:13:37.468Z,14.21
2022-10-17T00:14:37.461Z,14.21
2022-10-17T00:15:37.457Z,14.21
2022-10-17T00:16:37.488Z,14.21
2022-10-17T00:17:37.489Z,14.21
2022-10-17T00:18:37.522Z,14.21
2022-10-17T00:19:37.464Z,14.3
2022-10-17T00:20:37.503Z,14.3
2022-10-17T00:21:37.552Z,14.3
2022-10-17T00:22:37.455Z,14.3
2022-10-17T00:23:37.473Z,14.3
2022-10-17T00:24:37.460Z,14.3
2022-10-17T00:25:37.525Z,14.3
2022-10-17T00:26:37.520Z,14.3
2022-10-17T00:27:37.453Z,14.3
2022-10-17T00:28:37.531Z,14.3
2022-10-17T00:29:37.491Z,14.38
2022-10-17T00:30:37.486Z,14.38
2022-10-17T00:31:37.459Z,14.38
2022-10-17T00:32:37.488Z,14.38
2022-10-17T00:33:37.513Z,14.38
2022-10-17T00:34:37.502Z,14.38
2022-10-17T00:35:37.467Z,14.38
2022-10-17T00:36:37.492Z,14.38
2022-10-17T00:37:37.457Z,14.38
2022-10-17T00:38:37.478Z,14.38
2022-10-17T00:39:37.448Z,14.47
2022-10-17T00:40:37.470Z,14.47
2022-10-17T00:41:37.504Z,14.38
2022-10-17T00:42:37.509Z,14.38
2022-10-17T00:43:37.461Z,14.38
2022-10-17T00:44:37.445Z,14.3
2022-10-17T00:45:37.459Z,14.3
2022-10-17T00:46:37.468Z,14.3
2022-10-17T00:47:37.453Z,14.3
2022-10-17T00:48:37.465Z,14.3
2022-10-17T00:49:37.501Z,14.21
2022-10-17T00:50:37.466Z,14.21
2022-10-17T00:51:37.632Z,14.3
2022-10-17T00:52:37.479Z,14.3
2022-10-17T00:53:37.466Z,14.21
2022-10-17T00:54:37.458Z,14.21
2022-10-17T00:55:37.465Z,14.3
2022-10-17T00:56:37.525Z,14.21
2022-10-17T00:57:37.499Z,14.21
2022-10-17T00:58:37.468Z,14.21
2022-10-17T00:59:37.470Z,14.13
2022-10-17T01:00:37.463Z,14.13
2022-10-17T01:01:37.531Z,14.13
2022-10-17T01:02:37.470Z,14.13
2022-10-17T01:03:37.481Z,14.13
2022-10-17T01:04:37.503Z,14.13
2022-10-17T01:05:37.501Z,14.04
2022-10-17T01:06:37.478Z,14.13
2022-10-17T01:07:37.522Z,14.04
2022-10-17T01:08:37.465Z,14.13
2022-10-17T01:09:37.462Z,14.13
2022-10-17T01:10:37.477Z,14.13
2022-10-17T01:11:37.463Z,14.13
2022-10-17T01:12:37.511Z,14.13
2022-10-17T01:13:37.511Z,14.13
2022-10-17T01:14:37.461Z,14.13
2022-10-17T01:15:37.470Z,14.13
2022-10-17T01:16:37.463Z,14.13
2022-10-17T01:17:37.456Z,14.13
2022-10-17T01:18:37.458Z,14.04
2022-10-17T01:19:37.477Z,14.04
2022-10-17T01:20:37.503Z,14.04
2022-10-17T01:21:37.560Z,14.04
2022-10-17T01:22:37.472Z,14.04
2022-10-17T01:23:37.488Z,14.13
2022-10-17T01:24:37.480Z,14.13
2022-10-17T01:25:37.465Z,14.13
2022-10-17T01:26:37.466Z,14.04
2022-10-17T01:27:37.477Z,14.04
2022-10-17T01:28:37.662Z,14.13
2022-10-17T01:29:37.466Z,14.13
2022-10-17T01:30:37.523Z,14.04
2022-10-17T01:31:37.482Z,14.13
2022-10-17T01:32:37.466Z,14.13
2022-10-17T01:33:37.523Z,14.04
2022-10-17T01:34:37.489Z,14.04
2022-10-17T01:35:37.480Z,14.04
2022-10-17T01:36:37.549Z,14.13
2022-10-17T01:37:37.474Z,14.13
2022-10-17T01:38:37.496Z,14.13
2022-10-17T01:39:38.506Z,14.13
2022-10-17T01:40:37.467Z,14.04
2022-10-17T01:41:37.472Z,14.04
2022-10-17T01:42:37.485Z,14.04
2022-10-17T01:43:37.518Z,14.13
2022-10-17T01:44:37.530Z,14.13
2022-10-17T01:45:37.486Z,14.13
2022-10-17T01:46:37.486Z,14.13
2022-10-17T01:47:37.482Z,14.21
2022-10-17T01:48:37.478Z,14.21
2022-10-17T01:49:37.641Z,14.13
2022-10-17T01:50:37.490Z,14.21
2022-10-17T01:51:37.548Z,14.13
2022-10-17T01:52:37.516Z,14.13
2022-10-17T01:53:37.481Z,14.13
2022-10-17T01:54:37.478Z,14.13
2022-10-17T01:55:37.570Z,14.21
2022-10-17T01:56:37.469Z,14.21
2022-10-17T01:57:37.475Z,14.21
2022-10-17T01:58:37.483Z,14.13
2022-10-17T01:59:37.517Z,14.13
2022-10-17T02:00:37.479Z,14.13
2022-10-17T02:01:37.575Z,14.13
2022-10-17T02:02:37.474Z,14.13
2022-10-17T02:03:37.487Z,14.13
2022-10-17T02:04:37.469Z,14.13
2022-10-17T02:05:37.490Z,14.21
2022-10-17T02:06:37.525Z,14.13
2022-10-17T02:07:37.548Z,14.21
2022-10-17T02:08:37.477Z,14.21
2022-10-17T02:09:37.478Z,14.3
2022-10-17T02:10:37.482Z,14.3
2022-10-17T02:11:37.490Z,14.21
2022-10-17T02:12:37.471Z,14.21
2022-10-17T02:13:37.483Z,14.21
2022-10-17T02:14:37.488Z,14.21
2022-10-17T02:15:37.584Z,14.21
2022-10-17T02:16:37.524Z,14.3
2022-10-17T02:17:37.497Z,14.3
2022-10-17T02:18:37.478Z,14.3
2022-10-17T02:19:37.482Z,14.3
2022-10-17T02:20:37.595Z,14.3
2022-10-17T02:21:37.506Z,14.3
2022-10-17T02:22:37.530Z,14.3
2022-10-17T02:23:37.523Z,14.3
2022-10-17T02:24:37.496Z,14.3
2022-10-17T02:25:37.484Z,14.3
2022-10-17T02:26:37.473Z,14.3
2022-10-17T02:27:37.473Z,14.3
2022-10-17T02:28:37.646Z,14.3
2022-10-17T02:29:37.483Z,14.21
2022-10-17T02:30:37.526Z,14.21
2022-10-17T02:31:37.512Z,14.3
2022-10-17T02:32:37.493Z,14.21
2022-10-17T02:33:37.473Z,14.21
2022-10-17T02:34:37.534Z,14.21
2022-10-17T02:35:37.481Z,14.21
2022-10-17T02:36:37.533Z,14.21
2022-10-17T02:37:37.488Z,14.21
2022-10-17T02:38:37.517Z,14.21
2022-10-17T02:39:37.486Z,14.21
2022-10-17T02:40:37.498Z,14.21
2022-10-17T02:41:37.484Z,14.21
2022-10-17T02:42:37.485Z,14.21
2022-10-17T02:43:37.489Z,14.13
2022-10-17T02:44:37.477Z,14.13
2022-10-17T02:45:37.497Z,14.13
2022-10-17T02:46:37.524Z,14.13
2022-10-17T02:47:37.479Z,14.21
2022-10-17T02:48:37.519Z,14.21
2022-10-17T02:49:37.500Z,14.21
2022-10-17T02:50:37.480Z,14.21
2022-10-17T02:51:37.515Z,14.21
2022-10-17T02:52:37.540Z,14.3
2022-10-17T02:53:37.539Z,14.3
2022-10-17T02:54:37.530Z,14.3
2022-10-17T02:55:37.479Z,14.3
2022-10-17T02:56:37.505Z,14.3
2022-10-17T02:57:37.493Z,14.3
2022-10-17T02:58:37.479Z,14.3
2022-10-17T02:59:37.517Z,14.3
2022-10-17T03:00:37.494Z,14.3
2022-10-17T03:01:37.639Z,14.3
2022-10-17T03:02:37.529Z,14.21
2022-10-17T03:03:37.482Z,14.21
2022-10-17T03:04:37.496Z,14.21
2022-10-17T03:05:37.490Z,14.21
2022-10-17T03:06:37.503Z,14.21
2022-10-17T03:07:37.498Z,14.21
2022-10-17T03:09:37.519Z,14.21
2022-10-17T03:10:37.505Z,14.21
2022-10-17T03:11:37.494Z,14.21
2022-10-17T03:12:37.482Z,14.21
2022-10-17T03:13:39.783Z,14.21
2022-10-17T03:14:37.484Z,14.21
2022-10-17T03:15:37.500Z,14.21
2022-10-17T03:16:37.498Z,14.21
2022-10-17T03:17:37.581Z,14.21
2022-10-17T03:18:37.502Z,14.21
2022-10-17T03:19:37.480Z,14.21
2022-10-17T03:20:37.489Z,14.21
2022-10-17T03:21:37.500Z,14.21
2022-10-17T03:22:37.563Z,14.21
2022-10-17T03:23:37.490Z,14.21
2022-10-17T03:24:37.533Z,14.21
2022-10-17T03:25:37.534Z,14.21
2022-10-17T03:26:37.552Z,14.21
2022-10-17T03:27:37.674Z,14.21
2022-10-17T03:28:37.547Z,14.21
2022-10-17T03:29:37.524Z,14.21
2022-10-17T03:30:37.536Z,14.3
2022-10-17T03:31:37.501Z,14.3
2022-10-17T03:32:37.604Z,14.3
2022-10-17T03:33:37.552Z,14.3
2022-10-17T03:34:37.487Z,14.21
2022-10-17T03:35:37.511Z,14.21
2022-10-17T03:36:37.507Z,14.3
2022-10-17T03:37:37.502Z,14.3
2022-10-17T03:38:37.523Z,14.21
2022-10-17T03:39:37.478Z,14.3
2022-10-17T03:40:37.573Z,14.21
2022-10-17T03:41:37.482Z,14.21
2022-10-17T03:42:37.495Z,14.21
2022-10-17T03:43:37.495Z,14.21
2022-10-17T03:44:37.579Z,14.21
2022-10-17T03:45:37.512Z,14.21
2022-10-17T03:46:37.569Z,14.21
2022-10-17T03:47:37.592Z,14.21
2022-10-17T03:48:37.553Z,14.21
2022-10-17T03:49:37.485Z,14.13
2022-10-17T03:50:37.679Z,14.13
2022-10-17T03:51:37.664Z,14.13
2022-10-17T03:52:37.493Z,14.13
2022-10-17T03:53:37.497Z,14.13
2022-10-17T03:54:37.496Z,14.13
2022-10-17T03:55:37.527Z,14.04
2022-10-17T03:56:37.538Z,14.13
2022-10-17T03:57:39.347Z,14.04
2022-10-17T03:58:37.501Z,14.04
2022-10-17T03:59:37.485Z,14.13
2022-10-17T04:00:37.522Z,14.13
2022-10-17T04:01:37.561Z,14.21
2022-10-17T04:02:37.494Z,14.13
2022-10-17T04:03:37.559Z,14.21
2022-10-17T04:04:37.536Z,14.13
2022-10-17T04:05:37.488Z,14.13
2022-10-17T04:06:37.648Z,14.13
2022-10-17T04:07:37.495Z,14.04
2022-10-17T04:08:37.538Z,14.13
2022-10-17T04:09:37.523Z,14.13
2022-10-17T04:10:37.500Z,14.13
2022-10-17T04:11:37.541Z,14.04
2022-10-17T04:12:37.545Z,14.04
2022-10-17T04:13:37.557Z,14.04
2022-10-17T04:14:37.502Z,14.04
2022-10-17T04:15:37.512Z,14.04
2022-10-17T04:16:37.509Z,14.04
2022-10-17T04:17:38.302Z,14.04
2022-10-17T04:18:37.490Z,14.04
2022-10-17T04:19:37.555Z,14.04
2022-10-17T04:20:37.536Z,14.04
2022-10-17T04:21:37.534Z,13.96
2022-10-17T04:22:37.503Z,13.96
2022-10-17T04:23:37.537Z,14.04
2022-10-17T04:24:37.522Z,14.04
2022-10-17T04:25:37.508Z,14.04
2022-10-17T04:26:37.493Z,14.04
2022-10-17T04:27:37.568Z,14.04
2022-10-17T04:29:37.497Z,14.04
2022-10-17T04:30:40.056Z,14.04
2022-10-17T04:31:37.529Z,14.04
2022-10-17T04:32:37.500Z,13.96
2022-10-17T04:33:37.502Z,13.96
2022-10-17T04:34:37.548Z,13.96
2022-10-17T04:35:37.547Z,13.96
2022-10-17T04:36:37.517Z,13.96
2022-10-17T04:37:37.497Z,13.96
2022-10-17T04:38:37.500Z,13.96
2022-10-17T04:39:37.489Z,13.96
2022-10-17T04:40:37.543Z,13.96
2022-10-17T04:41:37.493Z,13.96
2022-10-17T04:42:37.507Z,13.96
2022-10-17T04:43:37.537Z,13.96
2022-10-17T04:44:37.503Z,13.96
2022-10-17T04:45:37.496Z,13.87
2022-10-17T04:46:37.508Z,13.87
2022-10-17T04:47:37.489Z,13.87
2022-10-17T04:48:37.518Z,13.96
2022-10-17T04:49:37.563Z,13.96
2022-10-17T04:50:37.543Z,13.96
2022-10-17T04:51:37.713Z,13.96
2022-10-17T04:52:37.554Z,13.96
2022-10-17T04:53:37.506Z,14.04
2022-10-17T04:54:37.532Z,14.04
2022-10-17T04:55:37.498Z,14.04
2022-10-17T04:56:37.521Z,14.04
2022-10-17T04:57:37.495Z,14.13
2022-10-17T04:58:37.543Z,14.13
2022-10-17T04:59:37.596Z,14.13
2022-10-17T05:00:37.527Z,14.04
2022-10-17T05:01:37.505Z,14.04
2022-10-17T05:02:37.525Z,14.13
2022-10-17T05:03:37.514Z,14.13
2022-10-17T05:04:37.496Z,14.13
2022-10-17T05:05:37.524Z,14.04
2022-10-17T05:06:37.593Z,14.04
2022-10-17T05:07:37.521Z,14.13
2022-10-17T05:08:37.550Z,14.04
2022-10-17T05:09:37.510Z,14.04
2022-10-17T05:10:37.496Z,14.13
2022-10-17T05:11:37.521Z,14.04
2022-10-17T05:12:37.519Z,14.13
2022-10-17T05:13:37.831Z,14.13
2022-10-17T05:14:37.903Z,14.13
2022-10-17T05:15:37.871Z,14.13
2022-10-17T05:16:37.794Z,14.13
2022-10-17T05:17:37.829Z,14.13
2022-10-17T05:18:37.504Z,14.13
2022-10-17T05:19:37.541Z,14.21
2022-10-17T05:20:37.523Z,14.21
2022-10-17T05:21:37.911Z,14.13
2022-10-17T05:22:39.774Z,14.13
2022-10-17T05:23:37.523Z,14.13
2022-10-17T05:24:37.504Z,14.13
2022-10-17T05:25:37.510Z,14.13
2022-10-17T05:26:37.514Z,14.13
2022-10-17T05:27:37.525Z,14.13
2022-10-17T05:28:37.573Z,14.13
2022-10-17T05:29:37.565Z,14.13
2022-10-17T05:30:37.749Z,14.13
2022-10-17T05:31:37.517Z,14.13
2022-10-17T05:32:37.512Z,14.21
2022-10-17T05:33:37.514Z,14.13
2022-10-17T05:34:37.508Z,14.13
2022-10-17T05:35:37.509Z,14.13
2022-10-17T05:36:37.581Z,14.13
2022-10-17T05:37:37.559Z,14.13
2022-10-17T05:38:37.524Z,14.13
2022-10-17T05:39:37.522Z,14.13
2022-10-17T05:40:37.518Z,14.13
2022-10-17T05:41:37.560Z,14.21
2022-10-17T05:42:37.564Z,14.13
2022-10-17T05:43:37.616Z,14.13
2022-10-17T05:44:37.695Z,14.13
2022-10-17T05:45:37.649Z,14.13
2022-10-17T05:46:37.783Z,14.13
2022-10-17T05:47:37.783Z,14.21
2022-10-17T05:48:37.668Z,14.13
2022-10-17T05:49:48.339Z,14.21
2022-10-17T05:50:37.761Z,14.13
2022-10-17T05:52:37.829Z,14.13
2022-10-17T05:53:37.802Z,14.13
2022-10-17T05:54:37.535Z,14.04
2022-10-17T05:55:37.543Z,14.04
2022-10-17T05:56:37.539Z,14.04
2022-10-17T05:57:37.551Z,14.04
2022-10-17T05:58:56.215Z,14.04
2022-10-17T05:59:37.518Z,14.04
2022-10-17T06:00:37.611Z,14.04
2022-10-17T06:01:37.662Z,14.04
2022-10-17T06:02:37.522Z,13.96
2022-10-17T06:03:37.511Z,14.04
2022-10-17T06:04:37.533Z,14.04
2022-10-17T06:05:37.503Z,14.04
2022-10-17T06:06:37.637Z,14.04
2022-10-17T06:07:37.610Z,14.04
2022-10-17T06:08:37.626Z,14.04
2022-10-17T06:09:37.558Z,14.04
2022-10-17T06:10:37.530Z,14.04
2022-10-17T06:11:37.543Z,14.04
2022-10-17T06:12:37.545Z,14.04
2022-10-17T06:13:37.592Z,14.04
2022-10-17T06:14:37.557Z,14.04
2022-10-17T06:15:37.550Z,14.04
2022-10-17T06:16:37.558Z,14.04
2022-10-17T06:17:37.515Z,14.04
2022-10-17T06:18:37.618Z,14.13
2022-10-17T06:19:37.606Z,14.04
2022-10-17T06:20:37.541Z,14.04
2022-10-17T06:21:37.612Z,14.04
2022-10-17T06:22:37.650Z,14.04
2022-10-17T06:23:37.616Z,14.13
2022-10-17T06:24:37.571Z,14.13
2022-10-17T06:25:37.530Z,14.13
2022-10-17T06:26:37.517Z,14.13
2022-10-17T06:27:37.526Z,14.13
2022-10-17T06:28:37.647Z,14.13
2022-10-17T06:29:37.569Z,14.04
2022-10-17T06:30:37.517Z,14.13
2022-10-17T06:31:37.573Z,14.13
2022-10-17T06:32:37.600Z,14.13
2022-10-17T06:33:37.601Z,14.13
2022-10-17T06:34:37.512Z,14.13
2022-10-17T06:35:37.536Z,14.13
2022-10-17T06:36:37.510Z,14.21
2022-10-17T06:37:37.926Z,14.13
2022-10-17T06:38:37.510Z,14.21
2022-10-17T06:39:37.640Z,14.21
2022-10-17T06:40:37.541Z,14.3
2022-10-17T06:41:37.543Z,14.3
2022-10-17T06:42:37.542Z,14.21
2022-10-17T06:43:37.560Z,14.21
2022-10-17T06:44:37.585Z,14.21
2022-10-17T06:45:37.570Z,14.3
2022-10-17T06:46:37.574Z,14.3
2022-10-17T06:47:37.580Z,14.3
2022-10-17T06:48:37.582Z,14.3
2022-10-17T06:49:37.588Z,14.3
2022-10-17T06:50:37.523Z,14.3
2022-10-17T06:51:37.528Z,14.3
2022-10-17T06:52:37.636Z,14.38
2022-10-17T06:53:37.624Z,14.38
2022-10-17T06:54:37.622Z,14.47
2022-10-17T06:55:37.632Z,14.47
2022-10-17T06:56:37.535Z,14.47
2022-10-17T06:57:37.548Z,14.56
2022-10-17T06:58:37.557Z,14.47
2022-10-17T06:59:37.561Z,14.56
2022-10-17T07:00:37.725Z,14.56
2022-10-17T07:01:37.669Z,14.65
2022-10-17T07:02:37.577Z,14.65
2022-10-17T07:03:37.558Z,14.65
2022-10-17T07:04:37.550Z,14.73
2022-10-17T07:05:37.592Z,14.73
2022-10-17T07:06:37.535Z,14.82
2022-10-17T07:07:40.173Z,14.91
2022-10-17T07:08:37.617Z,14.91
2022-10-17T07:09:37.625Z,14.91
2022-10-17T07:10:37.635Z,14.91
2022-10-17T07:11:37.642Z,15
2022-10-17T07:12:37.544Z,15
2022-10-17T07:13:39.309Z,15.09
2022-10-17T07:14:37.557Z,15.09
2022-10-17T07:15:37.556Z,15.18
2022-10-17T07:16:37.519Z,15.18
2022-10-17T07:17:37.577Z,15.27
2022-10-17T07:18:37.571Z,15.36
2022-10-17T07:19:37.593Z,15.27
2022-10-17T07:20:37.531Z,15.36
2022-10-17T07:21:39.215Z,15.45
2022-10-17T07:22:37.647Z,15.45
2022-10-17T07:23:37.617Z,15.55
2022-10-17T07:24:37.666Z,15.45
2022-10-17T07:25:40.084Z,15.45
2022-10-17T07:26:37.572Z,15.55
2022-10-17T07:27:37.535Z,15.45
2022-10-17T07:28:37.712Z,15.45
2022-10-17T07:29:37.556Z,15.36
2022-10-17T07:30:37.558Z,15.45
2022-10-17T07:31:37.567Z,15.55
2022-10-17T07:32:37.586Z,15.45
2022-10-17T07:33:37.756Z,15.55
2022-10-17T07:34:37.594Z,15.55
2022-10-17T07:35:37.599Z,15.45
2022-10-17T07:36:37.527Z,15.55
2022-10-17T07:37:37.602Z,15.45
2022-10-17T07:38:37.603Z,15.55
2022-10-17T07:39:37.558Z,15.45
2022-10-17T07:40:37.631Z,15.55
2022-10-17T07:41:37.577Z,15.45
2022-10-17T07:43:37.537Z,15.45
2022-10-17T07:44:37.571Z,15.45
2022-10-17T07:45:37.657Z,15.36
2022-10-17T07:46:37.616Z,15.36
2022-10-17T07:47:37.820Z,15.27
2022-10-17T07:48:37.754Z,15.27
2022-10-17T07:49:37.879Z,15.27
2022-10-17T07:50:37.877Z,15.36
2022-10-17T07:51:38.025Z,15.36
2022-10-17T07:52:37.543Z,15.27
2022-10-17T07:53:37.618Z,15.27
2022-10-17T07:54:37.523Z,15.36
2022-10-17T07:55:37.638Z,15.36
2022-10-17T07:56:37.628Z,15.36
2022-10-17T07:57:37.630Z,15.45
2022-10-17T07:58:37.547Z,15.45
2022-10-17T07:59:37.558Z,15.55
2022-10-17T08:00:37.793Z,15.55
2022-10-17T08:01:37.565Z,15.64
2022-10-17T08:02:37.582Z,15.73
2022-10-17T08:03:37.564Z,15.73
2022-10-17T08:04:37.690Z,15.64
2022-10-17T08:05:37.601Z,15.64
2022-10-17T08:06:37.538Z,15.73
2022-10-17T08:07:37.552Z,15.83
2022-10-17T08:08:37.599Z,15.73
2022-10-17T08:09:37.614Z,15.73
2022-10-17T08:10:37.577Z,15.83
2022-10-17T08:11:37.625Z,15.83
2022-10-17T08:12:37.646Z,15.92
2022-10-17T08:13:37.645Z,16.01
2022-10-17T08:14:37.655Z,16.01
2022-10-17T08:15:37.651Z,16.01
2022-10-17T08:16:37.615Z,16.01
2022-10-17T08:17:37.556Z,16.01
2022-10-17T08:18:37.543Z,16.11
2022-10-17T08:19:37.529Z,16.01
2022-10-17T08:20:37.578Z,16.11
2022-10-17T08:21:37.595Z,16.21
2022-10-17T08:22:37.619Z,16.21
2022-10-17T08:23:37.619Z,16.3
2022-10-17T08:24:37.578Z,16.3
2022-10-17T08:25:37.610Z,16.3
2022-10-17T08:26:40.733Z,16.4
2022-10-17T08:27:37.637Z,16.5
2022-10-17T08:28:37.627Z,16.5
2022-10-17T08:29:37.529Z,16.59
2022-10-17T08:30:37.552Z,16.59
2022-10-17T08:31:37.524Z,16.69
2022-10-17T08:32:37.527Z,16.59
2022-10-17T08:33:37.568Z,16.59
2022-10-17T08:34:37.582Z,16.69
2022-10-17T08:35:37.606Z,16.69
2022-10-17T08:36:37.573Z,16.69
2022-10-17T08:37:37.612Z,16.69
2022-10-17T08:38:39.413Z,16.69
2022-10-17T08:39:37.614Z,16.79
2022-10-17T08:40:37.614Z,16.79
2022-10-17T08:41:37.525Z,16.69
2022-10-17T08:42:37.548Z,16.79
2022-10-17T08:43:37.633Z,16.69
2022-10-17T08:44:37.648Z,16.69
2022-10-17T08:45:37.554Z,16.69
2022-10-17T08:46:37.662Z,16.69
2022-10-17T08:47:37.562Z,16.69
2022-10-17T08:48:37.604Z,16.69
2022-10-17T08:49:37.569Z,16.59
2022-10-17T08:50:37.535Z,16.59
2022-10-17T08:51:37.696Z,16.5
2022-10-17T08:52:37.724Z,16.59
2022-10-17T08:53:37.604Z,16.69
2022-10-17T08:54:37.537Z,16.59
2022-10-17T08:55:40.048Z,16.69
2022-10-17T08:56:47.913Z,16.79
2022-10-17T08:57:37.639Z,16.79
2022-10-17T08:58:37.559Z,16.89
2022-10-17T08:59:37.646Z,16.99
2022-10-17T09:00:37.541Z,16.99
2022-10-17T09:01:37.653Z,16.99
2022-10-17T09:02:37.628Z,16.89
2022-10-17T09:03:37.661Z,16.79
2022-10-17T09:04:37.550Z,16.89
2022-10-17T09:05:37.540Z,16.89
2022-10-17T09:06:37.593Z,16.89
2022-10-17T09:07:37.712Z,16.99
2022-10-17T09:08:37.607Z,16.99
2022-10-17T09:09:37.538Z,16.99
2022-10-17T09:10:37.546Z,16.89
2022-10-17T09:11:37.549Z,16.89
2022-10-17T09:12:37.542Z,16.89
2022-10-17T09:14:37.549Z,16.99
2022-10-17T09:15:37.580Z,16.99
2022-10-17T09:16:37.659Z,16.89
2022-10-17T09:17:37.673Z,16.99
2022-10-17T09:18:37.558Z,17.09
2022-10-17T09:19:37.600Z,16.99
2022-10-17T09:20:37.578Z,16.99
2022-10-17T09:21:37.578Z,17.19
2022-10-17T09:22:37.728Z,17.19
2022-10-17T09:23:40.346Z,17.19
2022-10-17T09:24:37.545Z,17.29
2022-10-17T09:25:37.614Z,17.39
2022-10-17T09:26:37.616Z,17.39
2022-10-17T09:27:37.539Z,17.6
2022-10-17T09:28:37.745Z,17.6
2022-10-17T09:29:42.942Z,17.8
2022-10-17T09:30:45.132Z,17.91
2022-10-17T09:31:37.652Z,18.01
2022-10-17T09:32:37.700Z,18.33
2022-10-17T09:33:53.210Z,18.43
2022-10-17T09:34:37.954Z,18.54
2022-10-17T09:35:37.783Z,18.76
2022-10-17T09:36:37.830Z,18.76
2022-10-17T09:37:37.839Z,18.65
2022-10-17T09:38:37.997Z,18.87
2022-10-17T09:39:37.610Z,18.98
2022-10-17T09:40:37.602Z,19.31
2022-10-17T09:41:46.841Z,19.53
2022-10-17T09:42:37.620Z,19.76
2022-10-17T09:43:37.662Z,19.76
2022-10-17T09:44:37.653Z,19.99
2022-10-17T09:45:37.567Z,19.99
2022-10-17T09:46:37.608Z,19.87
2022-10-17T09:47:37.555Z,19.87
2022-10-17T09:48:37.655Z,19.87
2022-10-17T09:49:37.553Z,19.87
2022-10-17T09:50:37.574Z,19.99
2022-10-17T09:51:37.578Z,19.99
2022-10-17T09:52:37.600Z,19.99
2022-10-17T09:53:37.696Z,20.22
2022-10-17T09:54:37.693Z,19.99
2022-10-17T09:55:37.625Z,19.99
2022-10-17T09:56:37.612Z,19.99
2022-10-17T09:57:37.620Z,19.87
2022-10-17T09:58:37.620Z,19.76
2022-10-17T09:59:37.644Z,19.76
2022-10-17T10:00:37.721Z,19.87
2022-10-17T10:01:37.639Z,19.76
2022-10-17T10:02:37.599Z,19.99
2022-10-17T10:03:37.557Z,20.1
2022-10-17T10:04:53.078Z,19.87
2022-10-17T10:05:37.561Z,19.99
2022-10-17T10:06:37.561Z,19.99
2022-10-17T10:07:37.597Z,20.1
2022-10-17T10:08:37.548Z,20.22
2022-10-17T10:09:39.486Z,20.45
2022-10-17T10:10:37.550Z,20.45
2022-10-17T10:11:37.558Z,20.33
2022-10-17T10:12:37.620Z,20.45
2022-10-17T10:13:37.574Z,20.57
2022-10-17T10:14:37.552Z,20.72
2022-10-17T10:15:37.560Z,20.72
2022-10-17T10:16:37.576Z,20.52
2022-10-17T10:17:37.596Z,20.36
2022-10-17T10:18:37.553Z,20.18
2022-10-17T10:19:37.556Z,20.36
2022-10-17T10:20:37.559Z,20.58
2022-10-17T10:21:37.580Z,20.44
2022-10-17T10:22:37.568Z,20.64
2022-10-17T10:23:37.561Z,20.57
2022-10-17T10:24:37.606Z,20.06
2022-10-17T10:25:37.606Z,19.84
2022-10-17T10:26:37.583Z,19.89
2022-10-17T10:27:37.574Z,20.01
2022-10-17T10:28:37.652Z,20.34
2022-10-17T10:29:37.580Z,20.28
2022-10-17T10:30:39.792Z,19.95
2022-10-17T10:31:37.557Z,19.91
2022-10-17T10:32:37.608Z,20.06
2022-10-17T10:33:41.503Z,19.6
2022-10-17T10:34:37.655Z,19.27
2022-10-17T10:35:37.562Z,19.36
2022-10-17T10:37:37.573Z,19.53
2022-10-17T10:38:37.674Z,19.44
2022-10-17T10:39:37.565Z,19.58
2022-10-17T10:40:37.613Z,19.33
2022-10-17T10:41:37.591Z,19.69
2022-10-17T10:42:37.614Z,19.94
2022-10-17T10:43:37.689Z,19.68
2022-10-17T10:44:37.672Z,20.19
2022-10-17T10:45:53.046Z,19.96
2022-10-17T10:46:37.697Z,19.9
2022-10-17T10:47:37.794Z,20.07
2022-10-17T10:48:37.807Z,20.22
2022-10-17T10:49:37.894Z,19.98
2022-10-17T10:50:40.573Z,19.72
2022-10-17T10:51:37.824Z,19.55
2022-10-17T10:52:37.590Z,19.83
2022-10-17T10:53:37.584Z,19.83
2022-10-17T10:55:37.869Z,20.31
2022-10-17T10:56:37.614Z,20.16
2022-10-17T10:57:37.601Z,20.14
2022-10-17T10:58:40.246Z,20.16
2022-10-17T10:59:37.617Z,20.29
2022-10-17T11:00:37.742Z,20.33
2022-10-17T11:01:37.628Z,20.26
2022-10-17T11:02:37.646Z,20.27
2022-10-17T11:03:37.749Z,20.02
2022-10-17T11:04:37.615Z,20.47
2022-10-17T11:05:37.663Z,20.28
2022-10-17T11:06:37.673Z,19.81
2022-10-17T11:07:37.687Z,20.04
2022-10-17T11:08:37.569Z,20.18
2022-10-17T11:09:37.587Z,20.2
2022-10-17T11:10:37.592Z,20.13
2022-10-17T11:11:37.724Z,20.38
2022-10-17T11:12:37.771Z,20.38
2022-10-17T11:13:37.607Z,20.15
2022-10-17T11:14:37.622Z,20.56
2022-10-17T11:15:37.633Z,20.36
2022-10-17T11:16:37.646Z,20.32
2022-10-17T11:17:37.565Z,20.55
2022-10-17T11:18:37.646Z,20.4
2022-10-17T11:19:37.661Z,19.98
2022-10-17T11:20:37.665Z,20.3
2022-10-17T11:21:37.651Z,20.64
2022-10-17T11:22:37.566Z,20.73
2022-10-17T11:23:37.700Z,20.7
2022-10-17T11:24:37.608Z,20.45
2022-10-17T11:25:37.693Z,20.59
2022-10-17T11:26:37.755Z,20.76
2022-10-17T11:27:37.722Z,20.69
2022-10-17T11:28:37.811Z,20.8
2022-10-17T11:29:37.828Z,20.76
2022-10-17T11:30:38.010Z,20.67
2022-10-17T11:31:37.694Z,20.54
2022-10-17T11:32:37.724Z,20.78
2022-10-17T11:33:37.907Z,20.63
2022-10-17T11:34:37.589Z,20.68
2022-10-17T11:35:37.697Z,20.71
2022-10-17T11:36:37.661Z,20.87
2022-10-17T11:37:38.371Z,20.74
2022-10-17T11:38:37.676Z,20.21
2022-10-17T11:39:37.670Z,20.34
2022-10-17T11:40:37.570Z,20.53
2022-10-17T11:41:37.587Z,20.43
2022-10-17T11:42:37.706Z,20.66
2022-10-17T11:43:37.716Z,20.79
2022-10-17T11:44:37.619Z,21.02
2022-10-17T11:45:37.608Z,20.8
2022-10-17T11:46:37.621Z,20.57
2022-10-17T11:47:37.643Z,20.57
2022-10-17T11:48:37.575Z,20.45
2022-10-17T11:49:40.252Z,20.45
2022-10-17T11:52:55.404Z,20.33
2022-10-17T11:53:37.676Z,20.22
2022-10-17T11:54:37.707Z,20.22
2022-10-17T11:55:37.694Z,20.22
2022-10-17T11:56:41.810Z,20.22
2022-10-17T11:57:37.710Z,19.99
2022-10-17T11:58:37.732Z,19.99
2022-10-17T11:59:37.620Z,20.1
2022-10-17T12:00:40.533Z,20.1
2022-10-17T12:01:38.103Z,20.33
2022-10-17T12:02:37.586Z,20.33
2022-10-17T12:03:37.745Z,20.45
2022-10-17T12:04:37.660Z,20.45
2022-10-17T12:05:37.654Z,20.45
2022-10-17T12:06:37.655Z,20.45
2022-10-17T12:07:37.711Z,20.69
2022-10-17T12:08:37.687Z,20.69
2022-10-17T12:09:37.596Z,20.69
2022-10-17T12:10:37.580Z,20.8
2022-10-17T12:11:37.670Z,20.8
2022-10-17T12:12:37.579Z,20.92
2022-10-17T12:13:37.602Z,20.92
2022-10-17T12:14:37.610Z,20.69
2022-10-17T12:15:37.610Z,20.69
2022-10-17T12:16:37.637Z,20.92
2022-10-17T12:17:37.627Z,20.94
2022-10-17T12:18:37.629Z,20.92
2022-10-17T12:19:37.635Z,20.8
2022-10-17T12:20:37.645Z,20.92
2022-10-17T12:21:40.398Z,20.92
2022-10-17T12:22:37.664Z,20.9
2022-10-17T12:23:37.579Z,20.8
2022-10-17T12:24:37.580Z,20.8
2022-10-17T12:25:37.756Z,20.69
2022-10-17T12:26:37.686Z,20.69
2022-10-17T12:27:37.597Z,20.57
2022-10-17T12:28:37.662Z,20.57
2022-10-17T12:29:37.703Z,20.45
2022-10-17T12:30:37.609Z,20.45
2022-10-17T12:31:37.623Z,20.45
2022-10-17T12:33:00.040Z,20.45
2022-10-17T12:33:37.620Z,20.45
2022-10-17T12:34:37.724Z,20.45
2022-10-17T12:35:37.606Z,20.57
2022-10-17T12:36:37.600Z,20.69
2022-10-17T12:37:37.629Z,20.45
2022-10-17T12:38:37.585Z,20.45
2022-10-17T12:39:37.685Z,20.45
2022-10-17T12:40:37.686Z,20.69
2022-10-17T12:41:37.687Z,20.8
2022-10-17T12:42:37.687Z,20.8
2022-10-17T12:43:39.705Z,20.69
2022-10-17T12:44:37.908Z,20.69
2022-10-17T12:45:37.910Z,20.57
2022-10-17T12:46:37.611Z,20.69
2022-10-17T12:47:37.620Z,20.92
2022-10-17T12:48:37.638Z,21.04
2022-10-17T12:49:37.593Z,21.16
2022-10-17T12:50:38.201Z,21.16
2022-10-17T12:51:38.064Z,20.74
2022-10-17T12:52:37.643Z,20.71
2022-10-17T12:53:37.625Z,20.8
2022-10-17T12:54:47.053Z,20.67
2022-10-17T12:55:37.670Z,20.41
2022-10-17T12:56:37.721Z,20.8
2022-10-17T12:57:37.766Z,20.8
2022-10-17T12:58:37.695Z,20.8
2022-10-17T12:59:37.602Z,20.51
2022-10-17T13:00:37.724Z,20.48
2022-10-17T13:01:37.789Z,20.45
2022-10-17T13:02:37.611Z,20.33
2022-10-17T13:03:37.591Z,20.33
2022-10-17T13:04:37.630Z,20.33
2022-10-17T13:05:37.608Z,20.57